sensor_id;sensor_type;location;lat;lon;timestamp;pressure;altitude;pressure_sealevel;temperature;humidity
20909;BME280;10614;53.198;6.570;2024-03-07T00:00:03;102795.91;;;4.77;100.00
20909;BME280;10614;53.198;6.570;2024-03-07T00:02:07;102831.88;;;4.95;100.00
20909;BME280;10614;53.198;6.570;2024-03-07T00:04:09;102839.84;;;5.04;100.00
20909;BME280;10614;53.198;6.570;2024-03-07T00:06:11;102828.34;;;4.93;100.00
20909;BME280;10614;53.198;6.570;2024-03-07T00:08:13;102846.81;;;5.04;100.00
20909;BME280;10614;53.198;6.570;2024-03-07T00:10:18;102851.19;;;5.06;100.00
20909;BME280;10614;53.198;6.570;2024-03-07T00:12:21;102844.19;;;5.05;100.00
20909;BME280;10614;53.198;6.570;2024-03-07T00:14:24;102816.94;;;4.86;100.00
20909;BME280;10614;53.198;6.570;2024-03-07T00:16:27;102833.56;;;4.93;100.00
20909;BME280;10614;53.198;6.570;2024-03-07T00:18:29;102852.84;;;5.03;100.00
20909;BME280;10614;53.198;6.570;2024-03-07T00:20:31;102845.94;;;5.03;100.00
20909;BME280;10614;53.198;6.570;2024-03-07T00:22:33;102829.13;;;4.86;100.00
20909;BME280;10614;53.198;6.570;2024-03-07T00:24:34;102853.72;;;5.02;100.00
20909;BME280;10614;53.198;6.570;2024-03-07T00:26:37;102850.25;;;5.01;100.00
20909;BME280;10614;53.198;6.570;2024-03-07T00:28:38;102851.94;;;4.99;100.00
20909;BME280;10614;53.198;6.570;2024-03-07T00:30:40;102825.56;;;4.81;100.00
20909;BME280;10614;53.198;6.570;2024-03-07T00:32:45;102855.47;;;5.01;100.00
20909;BME280;10614;53.198;6.570;2024-03-07T00:34:47;102856.28;;;5.00;100.00
20909;BME280;10614;53.198;6.570;2024-03-07T00:36:49;102858.09;;;5.04;100.00
20909;BME280;10614;53.198;6.570;2024-03-07T00:38:52;102855.50;;;5.04;100.00
20909;BME280;10614;53.198;6.570;2024-03-07T00:40:54;102855.47;;;5.03;100.00
20909;BME280;10614;53.198;6.570;2024-03-07T00:42:58;102862.47;;;5.04;100.00
20909;BME280;10614;53.198;6.570;2024-03-07T00:45:00;102822.91;;;4.79;100.00
20909;BME280;10614;53.198;6.570;2024-03-07T00:47:01;102857.22;;;5.02;100.00
20909;BME280;10614;53.198;6.570;2024-03-07T00:49:04;102862.44;;;5.02;100.00
20909;BME280;10614;53.198;6.570;2024-03-07T00:51:06;102858.06;;;5.03;100.00
20909;BME280;10614;53.198;6.570;2024-03-07T00:53:09;102849.34;;;5.01;100.00
20909;BME280;10614;53.198;6.570;2024-03-07T00:55:11;102856.34;;;5.02;100.00
20909;BME280;10614;53.198;6.570;2024-03-07T00:57:13;102851.13;;;5.02;100.00
20909;BME280;10614;53.198;6.570;2024-03-07T00:59:17;102850.25;;;5.01;100.00
20909;BME280;10614;53.198;6.570;2024-03-07T01:01:19;102850.22;;;5.00;100.00
20909;BME280;10614;53.198;6.570;2024-03-07T01:03:21;102842.31;;;4.95;100.00
20909;BME280;10614;53.198;6.570;2024-03-07T01:05:24;102846.66;;;4.95;100.00
20909;BME280;10614;53.198;6.570;2024-03-07T01:07:25;102848.41;;;4.94;100.00
20909;BME280;10614;53.198;6.570;2024-03-07T01:09:28;102843.97;;;4.90;100.00
20909;BME280;10614;53.198;6.570;2024-03-07T01:11:30;102848.31;;;4.90;100.00
20909;BME280;10614;53.198;6.570;2024-03-07T01:13:32;102844.78;;;4.86;100.00
20909;BME280;10614;53.198;6.570;2024-03-07T01:15:35;102822.69;;;4.65;100.00
20909;BME280;10614;53.198;6.570;2024-03-07T01:17:37;102841.25;;;4.82;100.00
20909;BME280;10614;53.198;6.570;2024-03-07T01:19:39;102843.78;;;4.79;100.00
20909;BME280;10614;53.198;6.570;2024-03-07T01:21:40;102820.03;;;4.62;100.00
20909;BME280;10614;53.198;6.570;2024-03-07T01:23:42;102841.06;;;4.72;100.00
20909;BME280;10614;53.198;6.570;2024-03-07T01:25:45;102834.88;;;4.65;100.00
20909;BME280;10614;53.198;6.570;2024-03-07T01:27:47;102845.22;;;4.60;100.00
20909;BME280;10614;53.198;6.570;2024-03-07T01:29:49;102789.00;;;4.25;100.00
20909;BME280;10614;53.198;6.570;2024-03-07T01:31:53;102838.06;;;4.49;100.00
20909;BME280;10614;53.198;6.570;2024-03-07T01:33:55;102790.56;;;4.16;100.00
20909;BME280;10614;53.198;6.570;2024-03-07T01:35:57;102834.38;;;4.37;100.00
20909;BME280;10614;53.198;6.570;2024-03-07T01:37:59;102832.59;;;4.33;100.00
20909;BME280;10614;53.198;6.570;2024-03-07T01:40:00;102785.06;;;3.99;100.00
20909;BME280;10614;53.198;6.570;2024-03-07T01:42:06;102835.88;;;4.23;100.00
20909;BME280;10614;53.198;6.570;2024-03-07T01:44:08;102823.53;;;4.14;100.00
20909;BME280;10614;53.198;6.570;2024-03-07T01:46:10;102827.88;;;4.12;100.00
20909;BME280;10614;53.198;6.570;2024-03-07T01:48:18;102824.28;;;4.07;100.00
20909;BME280;10614;53.198;6.570;2024-03-07T01:50:24;102835.53;;;4.05;100.00
20909;BME280;10614;53.198;6.570;2024-03-07T01:52:27;102832.84;;;4.00;100.00
20909;BME280;10614;53.198;6.570;2024-03-07T01:54:29;102830.13;;;3.95;100.00
20909;BME280;10614;53.198;6.570;2024-03-07T01:56:31;102826.56;;;3.89;100.00
20909;BME280;10614;53.198;6.570;2024-03-07T01:58:33;102835.25;;;3.91;100.00
20909;BME280;10614;53.198;6.570;2024-03-07T02:00:38;102833.44;;;3.85;100.00
20909;BME280;10614;53.198;6.570;2024-03-07T02:02:39;102831.63;;;3.83;100.00
20909;BME280;10614;53.198;6.570;2024-03-07T02:04:44;102828.94;;;3.78;100.00
20909;BME280;10614;53.198;6.570;2024-03-07T02:06:45;102830.59;;;3.73;100.00
20909;BME280;10614;53.198;6.570;2024-03-07T02:08:47;102832.31;;;3.72;100.00
20909;BME280;10614;53.198;6.570;2024-03-07T02:10:50;102827.03;;;3.69;100.00
20909;BME280;10614;53.198;6.570;2024-03-07T02:12:52;102829.63;;;3.68;100.00
20909;BME280;10614;53.198;6.570;2024-03-07T02:14:53;102821.75;;;3.66;100.00
20909;BME280;10614;53.198;6.570;2024-03-07T02:16:56;102824.28;;;3.62;100.00
20909;BME280;10614;53.198;6.570;2024-03-07T02:18:58;102826.84;;;3.60;100.00
20909;BME280;10614;53.198;6.570;2024-03-07T02:21:06;102812.69;;;3.47;100.00
20909;BME280;10614;53.198;6.570;2024-03-07T02:23:08;102799.44;;;3.36;100.00
20909;BME280;10614;53.198;6.570;2024-03-07T02:25:09;102817.03;;;3.48;100.00
20909;BME280;10614;53.198;6.570;2024-03-07T02:27:10;102816.16;;;3.48;100.00
20909;BME280;10614;53.198;6.570;2024-03-07T02:29:12;102763.41;;;3.15;100.00
20909;BME280;10614;53.198;6.570;2024-03-07T02:31:14;102813.47;;;3.43;100.00
20909;BME280;10614;53.198;6.570;2024-03-07T02:33:15;102817.75;;;3.41;100.00
20909;BME280;10614;53.198;6.570;2024-03-07T02:35:17;102797.41;;;3.22;100.00
20909;BME280;10614;53.198;6.570;2024-03-07T02:37:21;102820.25;;;3.35;100.00
20909;BME280;10614;53.198;6.570;2024-03-07T02:39:23;102804.38;;;3.24;100.00
20909;BME280;10614;53.198;6.570;2024-03-07T02:41:25;102820.16;;;3.32;100.00
20909;BME280;10614;53.198;6.570;2024-03-07T02:43:27;102814.91;;;3.29;100.00
20909;BME280;10614;53.198;6.570;2024-03-07T02:45:29;102812.25;;;3.27;100.00
20909;BME280;10614;53.198;6.570;2024-03-07T02:47:31;102818.28;;;3.25;100.00
20909;BME280;10614;53.198;6.570;2024-03-07T02:49:32;102813.00;;;3.22;100.00
20909;BME280;10614;53.198;6.570;2024-03-07T02:51:35;102820.78;;;3.20;100.00
20909;BME280;10614;53.198;6.570;2024-03-07T02:53:38;102774.13;;;2.90;100.00
20909;BME280;10614;53.198;6.570;2024-03-07T02:55:40;102812.88;;;3.15;100.00
20909;BME280;10614;53.198;6.570;2024-03-07T02:57:42;102819.75;;;3.13;100.00
20909;BME280;10614;53.198;6.570;2024-03-07T02:59:44;102785.44;;;2.92;100.00
20909;BME280;10614;53.198;6.570;2024-03-07T03:01:46;102810.16;;;3.11;100.00
20909;BME280;10614;53.198;6.570;2024-03-07T03:03:48;102809.28;;;3.10;100.00
20909;BME280;10614;53.198;6.570;2024-03-07T03:05:50;102814.44;;;3.07;100.00
20909;BME280;10614;53.198;6.570;2024-03-07T03:07:52;102809.19;;;3.06;100.00
20909;BME280;10614;53.198;6.570;2024-03-07T03:09:58;102804.84;;;3.05;100.00
20909;BME280;10614;53.198;6.570;2024-03-07T03:12:00;102792.44;;;2.94;100.00
20909;BME280;10614;53.198;6.570;2024-03-07T03:14:02;102805.53;;;2.98;100.00
20909;BME280;10614;53.198;6.570;2024-03-07T03:16:04;102747.59;;;2.67;100.00
20909;BME280;10614;53.198;6.570;2024-03-07T03:18:07;102794.94;;;2.90;100.00
20909;BME280;10614;53.198;6.570;2024-03-07T03:20:10;102799.31;;;2.92;100.00
20909;BME280;10614;53.198;6.570;2024-03-07T03:22:24;102803.59;;;2.89;100.00
20909;BME280;10614;53.198;6.570;2024-03-07T03:24:27;102767.63;;;2.71;100.00
20909;BME280;10614;53.198;6.570;2024-03-07T03:26:30;102788.75;;;2.85;100.00
20909;BME280;10614;53.198;6.570;2024-03-07T03:28:33;102787.88;;;2.84;100.00
20909;BME280;10614;53.198;6.570;2024-03-07T03:30:34;102781.81;;;2.84;100.00
20909;BME280;10614;53.198;6.570;2024-03-07T03:32:36;102797.47;;;2.87;100.00
20909;BME280;10614;53.198;6.570;2024-03-07T03:34:38;102788.75;;;2.85;100.00
20909;BME280;10614;53.198;6.570;2024-03-07T03:36:42;102791.31;;;2.83;100.00
20909;BME280;10614;53.198;6.570;2024-03-07T03:38:44;102793.84;;;2.80;100.00
20909;BME280;10614;53.198;6.570;2024-03-07T03:40:46;102785.06;;;2.75;100.00
20909;BME280;10614;53.198;6.570;2024-03-07T03:42:50;102792.00;;;2.76;100.00
20909;BME280;10614;53.198;6.570;2024-03-07T03:44:52;102792.88;;;2.75;100.00
20909;BME280;10614;53.198;6.570;2024-03-07T03:46:54;102790.22;;;2.73;100.00
20909;BME280;10614;53.198;6.570;2024-03-07T03:48:56;102762.94;;;2.56;100.00
20909;BME280;10614;53.198;6.570;2024-03-07T03:50:58;102763.75;;;2.53;100.00
20909;BME280;10614;53.198;6.570;2024-03-07T03:53:00;102790.00;;;2.64;100.00
20909;BME280;10614;53.198;6.570;2024-03-07T03:55:04;102787.50;;;2.67;100.00
20909;BME280;10614;53.198;6.570;2024-03-07T03:57:06;102786.56;;;2.65;100.00
20909;BME280;10614;53.198;6.570;2024-03-07T03:59:09;102739.13;;;2.38;100.00
20909;BME280;10614;53.198;6.570;2024-03-07T04:01:11;102757.53;;;2.47;100.00
20909;BME280;10614;53.198;6.570;2024-03-07T04:03:15;102782.13;;;2.61;100.00
20909;BME280;10614;53.198;6.570;2024-03-07T04:05:17;102777.69;;;2.57;100.00
20909;BME280;10614;53.198;6.570;2024-03-07T04:07:20;102755.63;;;2.40;100.00
20909;BME280;10614;53.198;6.570;2024-03-07T04:09:21;102762.69;;;2.45;100.00
20909;BME280;10614;53.198;6.570;2024-03-07T04:11:23;102781.09;;;2.54;100.00
20909;BME280;10614;53.198;6.570;2024-03-07T04:13:26;102779.34;;;2.53;100.00
20909;BME280;10614;53.198;6.570;2024-03-07T04:15:30;102771.47;;;2.50;100.00
20909;BME280;10614;53.198;6.570;2024-03-07T04:17:33;102778.44;;;2.51;100.00
20909;BME280;10614;53.198;6.570;2024-03-07T04:19:35;102753.72;;;2.34;100.00
20909;BME280;10614;53.198;6.570;2024-03-07T04:21:38;102774.00;;;2.47;100.00
20909;BME280;10614;53.198;6.570;2024-03-07T04:23:40;102772.09;;;2.40;100.00
20909;BME280;10614;53.198;6.570;2024-03-07T04:25:42;102772.03;;;2.37;100.00
20909;BME280;10614;53.198;6.570;2024-03-07T04:27:44;102779.88;;;2.40;100.00
20909;BME280;10614;53.198;6.570;2024-03-07T04:29:46;102785.94;;;2.39;100.00
20909;BME280;10614;53.198;6.570;2024-03-07T04:31:50;102782.44;;;2.39;100.00
20909;BME280;10614;53.198;6.570;2024-03-07T04:33:52;102770.13;;;2.31;100.00
20909;BME280;10614;53.198;6.570;2024-03-07T04:35:54;102781.56;;;2.38;100.00
20909;BME280;10614;53.198;6.570;2024-03-07T04:37:56;102785.03;;;2.39;100.00
20909;BME280;10614;53.198;6.570;2024-03-07T04:39:58;102782.41;;;2.37;100.00
20909;BME280;10614;53.198;6.570;2024-03-07T04:41:59;102786.75;;;2.37;100.00
20909;BME280;10614;53.198;6.570;2024-03-07T04:44:01;102788.44;;;2.36;100.00
20909;BME280;10614;53.198;6.570;2024-03-07T04:46:03;102788.31;;;2.31;100.00
20909;BME280;10614;53.198;6.570;2024-03-07T04:48:08;102797.91;;;2.32;100.00
20909;BME280;10614;53.198;6.570;2024-03-07T04:50:11;102792.66;;;2.31;100.00
20909;BME280;10614;53.198;6.570;2024-03-07T04:52:13;102797.81;;;2.29;100.00
20909;BME280;10614;53.198;6.570;2024-03-07T04:54:15;102789.97;;;2.28;100.00
20909;BME280;10614;53.198;6.570;2024-03-07T04:56:15;102746.97;;;2.06;100.00
20909;BME280;10614;53.198;6.570;2024-03-07T04:58:17;102785.59;;;2.27;100.00
20909;BME280;10614;53.198;6.570;2024-03-07T05:00:19;102747.09;;;2.10;100.00
20909;BME280;10614;53.198;6.570;2024-03-07T05:02:21;102787.31;;;2.25;100.00
20909;BME280;10614;53.198;6.570;2024-03-07T05:04:25;102780.28;;;2.21;100.00
20909;BME280;10614;53.198;6.570;2024-03-07T05:06:29;102777.50;;;2.15;100.00
20909;BME280;10614;53.198;6.570;2024-03-07T05:08:34;102782.78;;;2.18;100.00
20909;BME280;10614;53.198;6.570;2024-03-07T05:10:36;102784.50;;;2.17;100.00
20909;BME280;10614;53.198;6.570;2024-03-07T05:12:38;102781.78;;;2.13;100.00
20909;BME280;10614;53.198;6.570;2024-03-07T05:14:39;102786.97;;;2.13;100.00
20909;BME280;10614;53.198;6.570;2024-03-07T05:16:42;102786.84;;;2.06;100.00
20909;BME280;10614;53.198;6.570;2024-03-07T05:18:44;102800.81;;;2.11;100.00
20909;BME280;10614;53.198;6.570;2024-03-07T05:20:47;102792.03;;;2.06;100.00
20909;BME280;10614;53.198;6.570;2024-03-07T05:22:49;102796.38;;;2.07;100.00
20909;BME280;10614;53.198;6.570;2024-03-07T05:24:51;102802.41;;;2.06;100.00
20909;BME280;10614;53.198;6.570;2024-03-07T05:26:52;102805.84;;;2.05;100.00
20909;BME280;10614;53.198;6.570;2024-03-07T05:28:54;102811.00;;;2.04;100.00
20909;BME280;10614;53.198;6.570;2024-03-07T05:30:56;102803.16;;;2.02;100.00
20909;BME280;10614;53.198;6.570;2024-03-07T05:32:58;102803.03;;;1.98;100.00
20909;BME280;10614;53.198;6.570;2024-03-07T05:35:02;102806.59;;;2.01;100.00
20909;BME280;10614;53.198;6.570;2024-03-07T05:37:05;102802.19;;;1.97;100.00
20909;BME280;10614;53.198;6.570;2024-03-07T05:39:07;102809.97;;;1.97;100.00
20909;BME280;10614;53.198;6.570;2024-03-07T05:41:11;102809.03;;;1.95;100.00
20909;BME280;10614;53.198;6.570;2024-03-07T05:43:13;102802.75;;;1.87;100.00
20909;BME280;10614;53.198;6.570;2024-03-07T05:45:15;102813.25;;;1.92;100.00
20909;BME280;10614;53.198;6.570;2024-03-07T05:47:18;102810.63;;;1.90;100.00
20909;BME280;10614;53.198;6.570;2024-03-07T05:49:20;102820.91;;;1.87;100.00
20909;BME280;10614;53.198;6.570;2024-03-07T05:51:22;102812.19;;;1.85;100.00
20909;BME280;10614;53.198;6.570;2024-03-07T05:53:26;102813.91;;;1.83;100.00
20909;BME280;10614;53.198;6.570;2024-03-07T05:55:27;102812.09;;;1.80;100.00
20909;BME280;10614;53.198;6.570;2024-03-07T05:57:28;102811.19;;;1.80;100.00
20909;BME280;10614;53.198;6.570;2024-03-07T05:59:30;102809.41;;;1.77;100.00
20909;BME280;10614;53.198;6.570;2024-03-07T06:01:32;102809.41;;;1.77;100.00
20909;BME280;10614;53.198;6.570;2024-03-07T06:03:34;102811.97;;;1.76;100.00
20909;BME280;10614;53.198;6.570;2024-03-07T06:05:35;102805.75;;;1.71;100.00
20909;BME280;10614;53.198;6.570;2024-03-07T06:07:37;102804.94;;;1.72;100.00
20909;BME280;10614;53.198;6.570;2024-03-07T06:09:41;102804.94;;;1.72;100.00
20909;BME280;10614;53.198;6.570;2024-03-07T06:11:44;102783.84;;;1.61;100.00
20909;BME280;10614;53.198;6.570;2024-03-07T06:13:46;102804.06;;;1.71;100.00
20909;BME280;10614;53.198;6.570;2024-03-07T06:15:47;102804.00;;;1.69;100.00
20909;BME280;10614;53.198;6.570;2024-03-07T06:17:49;102805.63;;;1.66;100.00
20909;BME280;10614;53.198;6.570;2024-03-07T06:19:51;102797.69;;;1.61;100.00
20909;BME280;10614;53.198;6.570;2024-03-07T06:21:52;102782.72;;;1.51;100.00
20909;BME280;10614;53.198;6.570;2024-03-07T06:23:56;102810.00;;;1.67;100.00
20909;BME280;10614;53.198;6.570;2024-03-07T06:26:02;102801.09;;;1.59;100.00
20909;BME280;10614;53.198;6.570;2024-03-07T06:28:13;102807.31;;;1.64;100.00
20909;BME280;10614;53.198;6.570;2024-03-07T06:30:15;102808.13;;;1.63;100.00
20909;BME280;10614;53.198;6.570;2024-03-07T06:32:18;102817.66;;;1.62;100.00
20909;BME280;10614;53.198;6.570;2024-03-07T06:34:20;102762.28;;;1.32;100.00
20909;BME280;10614;53.198;6.570;2024-03-07T06:36:21;102787.03;;;1.51;100.00
20909;BME280;10614;53.198;6.570;2024-03-07T06:38:22;102816.25;;;1.74;100.00
20909;BME280;10614;53.198;6.570;2024-03-07T06:40:24;102820.72;;;1.79;100.00
20909;BME280;10614;53.198;6.570;2024-03-07T06:42:27;102826.75;;;1.78;100.00
20909;BME280;10614;53.198;6.570;2024-03-07T06:44:29;102821.59;;;1.80;100.00
20909;BME280;10614;53.198;6.570;2024-03-07T06:46:31;102827.69;;;1.80;100.00
20909;BME280;10614;53.198;6.570;2024-03-07T06:48:34;102808.47;;;1.75;100.00
20909;BME280;10614;53.198;6.570;2024-03-07T06:50:35;102830.50;;;1.88;100.00
20909;BME280;10614;53.198;6.570;2024-03-07T06:52:37;102821.91;;;1.90;100.00
20909;BME280;10614;53.198;6.570;2024-03-07T06:54:38;102830.69;;;1.96;100.00
20909;BME280;10614;53.198;6.570;2024-03-07T06:56:40;102820.34;;;1.97;100.00
20909;BME280;10614;53.198;6.570;2024-03-07T06:58:45;102826.38;;;1.96;100.00
20909;BME280;10614;53.198;6.570;2024-03-07T07:00:47;102823.88;;;1.99;100.00
20909;BME280;10614;53.198;6.570;2024-03-07T07:02:52;102829.97;;;2.01;100.00
20909;BME280;10614;53.198;6.570;2024-03-07T07:04:54;102831.75;;;2.02;100.00
20909;BME280;10614;53.198;6.570;2024-03-07T07:06:56;102831.75;;;2.02;100.00
20909;BME280;10614;53.198;6.570;2024-03-07T07:08:58;102832.63;;;2.03;100.00
20909;BME280;10614;53.198;6.570;2024-03-07T07:11:03;102839.53;;;2.02;100.00
20909;BME280;10614;53.198;6.570;2024-03-07T07:13:06;102839.53;;;2.02;100.00
20909;BME280;10614;53.198;6.570;2024-03-07T07:15:10;102837.88;;;2.06;100.00
20909;BME280;10614;53.198;6.570;2024-03-07T07:17:12;102820.34;;;1.97;100.00
20909;BME280;10614;53.198;6.570;2024-03-07T07:19:14;102813.25;;;1.92;100.00
20909;BME280;10614;53.198;6.570;2024-03-07T07:21:15;102837.19;;;2.11;100.00
20909;BME280;10614;53.198;6.570;2024-03-07T07:23:18;102847.72;;;2.16;100.00
20909;BME280;10614;53.198;6.570;2024-03-07T07:25:20;102822.94;;;1.97;100.00
20909;BME280;10614;53.198;6.570;2024-03-07T07:27:22;102843.38;;;2.17;100.00
20909;BME280;10614;53.198;6.570;2024-03-07T07:29:24;102840.78;;;2.17;100.00
20909;BME280;10614;53.198;6.570;2024-03-07T07:31:43;102826.88;;;2.15;100.00
20909;BME280;10614;53.198;6.570;2024-03-07T07:33:46;102817.22;;;2.09;100.00
20909;BME280;10614;53.198;6.570;2024-03-07T07:35:48;102839.44;;;2.31;100.00
20909;BME280;10614;53.198;6.570;2024-03-07T07:37:51;102844.78;;;2.37;100.00
20909;BME280;10614;53.198;6.570;2024-03-07T07:39:53;102844.78;;;2.37;100.00
20909;BME280;10614;53.198;6.570;2024-03-07T07:41:55;102844.78;;;2.37;100.00
20909;BME280;10614;53.198;6.570;2024-03-07T07:43:57;102848.19;;;2.35;100.00
20909;BME280;10614;53.198;6.570;2024-03-07T07:45:58;102853.34;;;2.33;100.00
20909;BME280;10614;53.198;6.570;2024-03-07T07:48:03;102856.00;;;2.35;100.00
20909;BME280;10614;53.198;6.570;2024-03-07T07:50:07;102830.50;;;2.21;100.00
20909;BME280;10614;53.198;6.570;2024-03-07T07:52:13;102849.03;;;2.33;100.00
20909;BME280;10614;53.198;6.570;2024-03-07T07:54:16;102846.41;;;2.33;100.00
20909;BME280;10614;53.198;6.570;2024-03-07T07:56:18;102851.56;;;2.30;100.00
20909;BME280;10614;53.198;6.570;2024-03-07T07:58:20;102816.47;;;2.13;100.00
20909;BME280;10614;53.198;6.570;2024-03-07T08:00:23;102842.00;;;2.29;100.00
20909;BME280;10614;53.198;6.570;2024-03-07T08:02:26;102852.59;;;2.37;100.00
20909;BME280;10614;53.198;6.570;2024-03-07T08:04:30;102847.53;;;2.42;100.00
20909;BME280;10614;53.198;6.570;2024-03-07T08:06:33;102850.13;;;2.43;100.00
20909;BME280;10614;53.198;6.570;2024-03-07T08:08:34;102856.31;;;2.47;100.00
20909;BME280;10614;53.198;6.570;2024-03-07T08:10:38;102787.91;;;2.15;100.00
20909;BME280;10614;53.198;6.570;2024-03-07T08:12:41;102837.31;;;2.49;100.00
20909;BME280;10614;53.198;6.570;2024-03-07T08:14:44;102834.66;;;2.48;100.00
20909;BME280;10614;53.198;6.570;2024-03-07T08:16:48;102840.75;;;2.48;100.00
20909;BME280;10614;53.198;6.570;2024-03-07T08:18:50;102839.09;;;2.52;100.00
20909;BME280;10614;53.198;6.570;2024-03-07T08:20:54;102838.28;;;2.53;100.00
20909;BME280;10614;53.198;6.570;2024-03-07T08:22:57;102842.69;;;2.56;100.00
20909;BME280;10614;53.198;6.570;2024-03-07T08:24:59;102836.63;;;2.57;100.00
20909;BME280;10614;53.198;6.570;2024-03-07T08:27:00;102844.47;;;2.60;100.00
20909;BME280;10614;53.198;6.570;2024-03-07T08:29:02;102843.72;;;2.64;100.00
20909;BME280;10614;53.198;6.570;2024-03-07T08:31:05;102835.97;;;2.65;100.00
20909;BME280;10614;53.198;6.570;2024-03-07T08:33:07;102842.97;;;2.68;100.00
20909;BME280;10614;53.198;6.570;2024-03-07T08:35:10;102844.66;;;2.66;100.00
20909;BME280;10614;53.198;6.570;2024-03-07T08:37:13;102847.19;;;2.64;100.00
20909;BME280;10614;53.198;6.570;2024-03-07T08:39:16;102848.09;;;2.65;100.00
20909;BME280;10614;53.198;6.570;2024-03-07T08:41:19;102836.81;;;2.64;100.00
20909;BME280;10614;53.198;6.570;2024-03-07T08:43:20;102838.53;;;2.64;100.00
20909;BME280;10614;53.198;6.570;2024-03-07T08:45:23;102838.41;;;2.59;100.00
20909;BME280;10614;53.198;6.570;2024-03-07T08:47:23;102839.38;;;2.63;100.00
20909;BME280;10614;53.198;6.570;2024-03-07T08:49:25;102830.63;;;2.59;100.00
20909;BME280;10614;53.198;6.570;2024-03-07T08:51:27;102837.72;;;2.66;100.00
20909;BME280;10614;53.198;6.570;2024-03-07T08:53:31;102839.50;;;2.69;100.00
20909;BME280;10614;53.198;6.570;2024-03-07T08:55:34;102835.28;;;2.72;100.00
20909;BME280;10614;53.198;6.570;2024-03-07T08:57:37;102837.06;;;2.75;100.00
20909;BME280;10614;53.198;6.570;2024-03-07T08:59:39;102806.34;;;2.59;100.00
20909;BME280;10614;53.198;6.570;2024-03-07T09:01:41;102825.81;;;2.76;100.00
20909;BME280;10614;53.198;6.570;2024-03-07T09:03:43;102823.25;;;2.78;100.00
20909;BME280;10614;53.198;6.570;2024-03-07T09:05:46;102825.09;;;2.82;100.00
20909;BME280;10614;53.198;6.570;2024-03-07T09:07:48;102823.38;;;2.82;100.00
20909;BME280;10614;53.198;6.570;2024-03-07T09:09:52;102828.72;;;2.88;100.00
20909;BME280;10614;53.198;6.570;2024-03-07T09:11:53;102827.00;;;2.89;100.00
20909;BME280;10614;53.198;6.570;2024-03-07T09:13:54;102784.69;;;2.60;100.00
20909;BME280;10614;53.198;6.570;2024-03-07T09:15:56;102822.63;;;2.88;100.00
20909;BME280;10614;53.198;6.570;2024-03-07T09:17:58;102821.81;;;2.89;100.00
20909;BME280;10614;53.198;6.570;2024-03-07T09:20:04;102821.91;;;2.93;100.00
20909;BME280;10614;53.198;6.570;2024-03-07T09:22:05;102836.75;;;2.98;100.00
20909;BME280;10614;53.198;6.570;2024-03-07T09:24:08;102789.28;;;2.70;100.00
20909;BME280;10614;53.198;6.570;2024-03-07T09:26:11;102825.34;;;2.92;100.00
20909;BME280;10614;53.198;6.570;2024-03-07T09:28:13;102830.53;;;2.92;100.00
20909;BME280;10614;53.198;6.570;2024-03-07T09:30:15;102829.75;;;2.95;100.00
20909;BME280;10614;53.198;6.570;2024-03-07T09:32:22;102828.94;;;2.98;100.00
20909;BME280;10614;53.198;6.570;2024-03-07T09:34:24;102826.41;;;3.01;100.00
20909;BME280;10614;53.198;6.570;2024-03-07T09:36:25;102825.72;;;3.08;100.00
20909;BME280;10614;53.198;6.570;2024-03-07T09:38:27;102795.13;;;2.98;100.00
20909;BME280;10614;53.198;6.570;2024-03-07T09:40:29;102805.66;;;3.04;100.00
20909;BME280;10614;53.198;6.570;2024-03-07T09:42:33;102829.44;;;3.19;100.00
20909;BME280;10614;53.198;6.570;2024-03-07T09:44:38;102824.22;;;3.19;100.00
20909;BME280;10614;53.198;6.570;2024-03-07T09:46:44;102830.47;;;3.26;100.00
20909;BME280;10614;53.198;6.570;2024-03-07T09:48:48;102831.38;;;3.29;100.00
20909;BME280;10614;53.198;6.570;2024-03-07T09:50:52;102825.25;;;3.27;100.00
20909;BME280;10614;53.198;6.570;2024-03-07T09:52:56;102829.53;;;3.24;100.00
20909;BME280;10614;53.198;6.570;2024-03-07T09:54:59;102832.16;;;3.24;100.00
20909;BME280;10614;53.198;6.570;2024-03-07T09:57:02;102811.94;;;3.13;100.00
20909;BME280;10614;53.198;6.570;2024-03-07T09:59:11;102822.66;;;3.27;100.00
20909;BME280;10614;53.198;6.570;2024-03-07T10:01:13;102827.97;;;3.32;100.00
20909;BME280;10614;53.198;6.570;2024-03-07T10:03:17;102793.81;;;3.16;100.00
20909;BME280;10614;53.198;6.570;2024-03-07T10:05:23;102796.53;;;3.21;100.00
20909;BME280;10614;53.198;6.570;2024-03-07T10:07:28;102822.75;;;3.32;100.00
20909;BME280;10614;53.198;6.570;2024-03-07T10:09:30;102834.03;;;3.32;100.00
20909;BME280;10614;53.198;6.570;2024-03-07T10:11:36;102795.50;;;3.14;100.00
20909;BME280;10614;53.198;6.570;2024-03-07T10:13:38;102832.44;;;3.37;100.00
20909;BME280;10614;53.198;6.570;2024-03-07T10:15:42;102826.44;;;3.42;100.00
20909;BME280;10614;53.198;6.570;2024-03-07T10:17:44;102809.69;;;3.29;100.00
20909;BME280;10614;53.198;6.570;2024-03-07T10:19:46;102822.00;;;3.36;100.00
20909;BME280;10614;53.198;6.570;2024-03-07T10:21:51;102822.84;;;3.35;100.00
20909;BME280;10614;53.198;6.570;2024-03-07T10:24:04;102820.25;;;3.35;100.00
20909;BME280;10614;53.198;6.570;2024-03-07T10:26:08;102818.38;;;3.29;100.00
20909;BME280;10614;53.198;6.570;2024-03-07T10:28:11;102775.41;;;3.09;100.00
20909;BME280;10614;53.198;6.570;2024-03-07T10:30:13;102822.06;;;3.39;100.00
20909;BME280;10614;53.198;6.570;2024-03-07T10:32:23;102818.66;;;3.43;100.00
20909;BME280;10614;53.198;6.570;2024-03-07T10:34:25;102820.44;;;3.44;100.00
20909;BME280;10614;53.198;6.570;2024-03-07T10:36:32;102813.53;;;3.46;100.00
20909;BME280;10614;53.198;6.570;2024-03-07T10:38:36;102809.28;;;3.50;100.00
20909;BME280;10614;53.198;6.570;2024-03-07T10:40:38;102814.72;;;3.62;100.00